sensor_id;sensor_type;location;lat;lon;timestamp;temperature;humidity
1307;DHT22;646;48.696;9.114;2022-08-21T00:01:24;14.40;99.90
1307;DHT22;646;48.696;9.114;2022-08-21T00:03:50;14.30;99.90
1307;DHT22;646;48.696;9.114;2022-08-21T00:06:16;14.40;99.90
1307;DHT22;646;48.696;9.114;2022-08-21T00:08:41;14.40;99.90
1307;DHT22;646;48.696;9.114;2022-08-21T00:11:07;14.20;99.90
1307;DHT22;646;48.696;9.114;2022-08-21T00:13:33;14.20;99.90
1307;DHT22;646;48.696;9.114;2022-08-21T00:16:00;14.20;99.90
1307;DHT22;646;48.696;9.114;2022-08-21T00:18:26;14.00;99.90
1307;DHT22;646;48.696;9.114;2022-08-21T00:20:51;14.10;99.90
1307;DHT22;646;48.696;9.114;2022-08-21T00:23:17;14.00;99.90
1307;DHT22;646;48.696;9.114;2022-08-21T00:25:43;14.00;99.90
1307;DHT22;646;48.696;9.114;2022-08-21T00:28:09;14.00;99.90
1307;DHT22;646;48.696;9.114;2022-08-21T00:30:35;13.90;99.90
1307;DHT22;646;48.696;9.114;2022-08-21T00:33:01;14.10;99.90
1307;DHT22;646;48.696;9.114;2022-08-21T00:35:36;13.90;99.90
1307;DHT22;646;48.696;9.114;2022-08-21T00:38:03;13.50;99.90
1307;DHT22;646;48.696;9.114;2022-08-21T00:40:40;13.80;99.90
1307;DHT22;646;48.696;9.114;2022-08-21T00:43:08;13.90;99.90
1307;DHT22;646;48.696;9.114;2022-08-21T00:45:34;13.90;99.90
1307;DHT22;646;48.696;9.114;2022-08-21T00:48:01;13.80;99.90
1307;DHT22;646;48.696;9.114;2022-08-21T00:50:30;13.90;99.90
1307;DHT22;646;48.696;9.114;2022-08-21T00:52:58;13.70;99.90
1307;DHT22;646;48.696;9.114;2022-08-21T00:55:25;13.50;99.90
1307;DHT22;646;48.696;9.114;2022-08-21T00:57:54;13.50;99.90
1307;DHT22;646;48.696;9.114;2022-08-21T01:00:26;13.60;99.90
1307;DHT22;646;48.696;9.114;2022-08-21T01:02:53;13.80;99.90
1307;DHT22;646;48.696;9.114;2022-08-21T01:05:19;13.50;99.90
1307;DHT22;646;48.696;9.114;2022-08-21T01:07:45;13.30;99.90
1307;DHT22;646;48.696;9.114;2022-08-21T01:10:11;13.30;99.90
1307;DHT22;646;48.696;9.114;2022-08-21T01:12:38;13.40;99.90
1307;DHT22;646;48.696;9.114;2022-08-21T01:15:06;13.30;99.90
1307;DHT22;646;48.696;9.114;2022-08-21T01:17:32;13.30;99.90
1307;DHT22;646;48.696;9.114;2022-08-21T01:19:59;13.40;99.90
1307;DHT22;646;48.696;9.114;2022-08-21T01:22:25;13.30;99.90
1307;DHT22;646;48.696;9.114;2022-08-21T01:24:51;13.30;99.90
1307;DHT22;646;48.696;9.114;2022-08-21T01:27:17;13.40;99.90
1307;DHT22;646;48.696;9.114;2022-08-21T01:29:53;13.30;99.90
1307;DHT22;646;48.696;9.114;2022-08-21T01:32:20;13.10;99.90
1307;DHT22;646;48.696;9.114;2022-08-21T01:34:48;13.10;99.90
1307;DHT22;646;48.696;9.114;2022-08-21T01:37:15;13.00;99.90
1307;DHT22;646;48.696;9.114;2022-08-21T01:39:42;12.80;99.90
1307;DHT22;646;48.696;9.114;2022-08-21T01:42:08;12.90;99.90
1307;DHT22;646;48.696;9.114;2022-08-21T01:44:34;13.00;99.90
1307;DHT22;646;48.696;9.114;2022-08-21T01:47:03;12.80;99.90
1307;DHT22;646;48.696;9.114;2022-08-21T01:49:29;12.70;99.90
1307;DHT22;646;48.696;9.114;2022-08-21T01:51:54;12.90;99.90
1307;DHT22;646;48.696;9.114;2022-08-21T01:54:20;12.50;99.90
1307;DHT22;646;48.696;9.114;2022-08-21T01:56:49;12.80;99.90
1307;DHT22;646;48.696;9.114;2022-08-21T01:59:15;12.70;99.90
1307;DHT22;646;48.696;9.114;2022-08-21T02:01:41;12.90;99.90
1307;DHT22;646;48.696;9.114;2022-08-21T02:04:08;12.60;99.90
1307;DHT22;646;48.696;9.114;2022-08-21T02:06:34;12.60;99.90
1307;DHT22;646;48.696;9.114;2022-08-21T02:09:01;12.30;99.90
1307;DHT22;646;48.696;9.114;2022-08-21T02:11:26;12.40;99.90
1307;DHT22;646;48.696;9.114;2022-08-21T02:13:52;12.30;99.90
1307;DHT22;646;48.696;9.114;2022-08-21T02:16:17;12.40;99.90
1307;DHT22;646;48.696;9.114;2022-08-21T02:18:43;12.30;99.90
1307;DHT22;646;48.696;9.114;2022-08-21T02:21:09;12.40;99.90
1307;DHT22;646;48.696;9.114;2022-08-21T02:23:34;12.40;99.90
1307;DHT22;646;48.696;9.114;2022-08-21T02:26:02;12.30;99.90
1307;DHT22;646;48.696;9.114;2022-08-21T02:28:29;12.20;99.90
1307;DHT22;646;48.696;9.114;2022-08-21T02:30:55;12.30;99.90
1307;DHT22;646;48.696;9.114;2022-08-21T02:33:22;12.00;99.90
1307;DHT22;646;48.696;9.114;2022-08-21T02:35:48;12.20;99.90
1307;DHT22;646;48.696;9.114;2022-08-21T02:38:17;12.30;99.90
1307;DHT22;646;48.696;9.114;2022-08-21T02:40:46;12.10;99.90
1307;DHT22;646;48.696;9.114;2022-08-21T02:43:11;12.20;99.90
1307;DHT22;646;48.696;9.114;2022-08-21T02:45:38;12.30;99.90
1307;DHT22;646;48.696;9.114;2022-08-21T02:48:06;12.30;99.90
1307;DHT22;646;48.696;9.114;2022-08-21T02:50:36;12.40;99.90
1307;DHT22;646;48.696;9.114;2022-08-21T02:53:02;12.30;99.90
1307;DHT22;646;48.696;9.114;2022-08-21T02:55:30;12.30;99.90
1307;DHT22;646;48.696;9.114;2022-08-21T02:57:57;12.30;99.90
1307;DHT22;646;48.696;9.114;2022-08-21T03:00:24;12.40;99.90
1307;DHT22;646;48.696;9.114;2022-08-21T03:02:50;12.30;99.90
1307;DHT22;646;48.696;9.114;2022-08-21T03:05:17;12.30;99.90
1307;DHT22;646;48.696;9.114;2022-08-21T03:07:46;12.00;99.90
1307;DHT22;646;48.696;9.114;2022-08-21T03:10:13;12.10;99.90
1307;DHT22;646;48.696;9.114;2022-08-21T03:12:38;12.10;99.90
1307;DHT22;646;48.696;9.114;2022-08-21T03:15:06;12.00;99.90
1307;DHT22;646;48.696;9.114;2022-08-21T03:17:33;12.00;99.90
1307;DHT22;646;48.696;9.114;2022-08-21T03:19:59;11.80;99.90
1307;DHT22;646;48.696;9.114;2022-08-21T03:22:25;12.10;99.90
1307;DHT22;646;48.696;9.114;2022-08-21T03:24:51;12.00;99.90
1307;DHT22;646;48.696;9.114;2022-08-21T03:27:17;12.00;99.90
1307;DHT22;646;48.696;9.114;2022-08-21T03:29:43;12.00;99.90
1307;DHT22;646;48.696;9.114;2022-08-21T03:32:08;11.90;99.90
1307;DHT22;646;48.696;9.114;2022-08-21T03:34:38;11.90;99.90
1307;DHT22;646;48.696;9.114;2022-08-21T03:37:05;12.00;99.90
1307;DHT22;646;48.696;9.114;2022-08-21T03:39:31;12.10;99.90
1307;DHT22;646;48.696;9.114;2022-08-21T03:41:56;11.90;99.90
1307;DHT22;646;48.696;9.114;2022-08-21T03:44:22;12.00;99.90
1307;DHT22;646;48.696;9.114;2022-08-21T03:46:47;11.80;99.90
1307;DHT22;646;48.696;9.114;2022-08-21T03:49:14;11.70;99.90
1307;DHT22;646;48.696;9.114;2022-08-21T03:51:39;11.40;99.90
1307;DHT22;646;48.696;9.114;2022-08-21T03:54:05;11.40;99.90
1307;DHT22;646;48.696;9.114;2022-08-21T03:56:30;11.60;99.90
1307;DHT22;646;48.696;9.114;2022-08-21T03:58:56;11.60;99.90
1307;DHT22;646;48.696;9.114;2022-08-21T04:01:21;11.70;99.90
1307;DHT22;646;48.696;9.114;2022-08-21T04:03:47;11.60;99.90
1307;DHT22;646;48.696;9.114;2022-08-21T04:06:12;11.70;99.90
1307;DHT22;646;48.696;9.114;2022-08-21T04:08:38;11.70;99.90
1307;DHT22;646;48.696;9.114;2022-08-21T04:11:04;11.50;99.90
1307;DHT22;646;48.696;9.114;2022-08-21T04:13:30;11.50;99.90
1307;DHT22;646;48.696;9.114;2022-08-21T04:15:56;11.20;99.90
1307;DHT22;646;48.696;9.114;2022-08-21T04:18:23;11.30;99.90
1307;DHT22;646;48.696;9.114;2022-08-21T04:20:51;11.30;99.90
1307;DHT22;646;48.696;9.114;2022-08-21T04:23:18;11.70;99.90
1307;DHT22;646;48.696;9.114;2022-08-21T04:25:44;11.30;99.90
1307;DHT22;646;48.696;9.114;2022-08-21T04:28:09;11.40;99.90
1307;DHT22;646;48.696;9.114;2022-08-21T04:30:35;11.30;99.90
1307;DHT22;646;48.696;9.114;2022-08-21T04:33:00;11.20;99.90
1307;DHT22;646;48.696;9.114;2022-08-21T04:35:27;11.30;99.90
1307;DHT22;646;48.696;9.114;2022-08-21T04:37:54;11.30;99.90
1307;DHT22;646;48.696;9.114;2022-08-21T04:40:21;11.20;99.90
1307;DHT22;646;48.696;9.114;2022-08-21T04:42:49;11.50;99.90
1307;DHT22;646;48.696;9.114;2022-08-21T04:45:40;11.20;99.90
1307;DHT22;646;48.696;9.114;2022-08-21T04:48:08;11.20;99.90
1307;DHT22;646;48.696;9.114;2022-08-21T04:53:31;11.20;99.90
1307;DHT22;646;48.696;9.114;2022-08-21T04:56:02;11.30;99.90
1307;DHT22;646;48.696;9.114;2022-08-21T04:58:29;11.30;99.90
1307;DHT22;646;48.696;9.114;2022-08-21T05:01:00;11.40;99.90
1307;DHT22;646;48.696;9.114;2022-08-21T05:03:26;11.50;99.90
1307;DHT22;646;48.696;9.114;2022-08-21T05:05:52;11.60;99.90
1307;DHT22;646;48.696;9.114;2022-08-21T05:08:20;11.90;99.90
1307;DHT22;646;48.696;9.114;2022-08-21T05:10:46;11.90;99.90
1307;DHT22;646;48.696;9.114;2022-08-21T05:13:13;12.00;99.90
1307;DHT22;646;48.696;9.114;2022-08-21T05:15:39;11.90;99.90
1307;DHT22;646;48.696;9.114;2022-08-21T05:18:05;12.30;99.90
1307;DHT22;646;48.696;9.114;2022-08-21T05:20:32;12.20;99.90
1307;DHT22;646;48.696;9.114;2022-08-21T05:23:00;12.60;99.90
1307;DHT22;646;48.696;9.114;2022-08-21T05:25:25;12.70;99.90
1307;DHT22;646;48.696;9.114;2022-08-21T05:27:51;13.00;99.90
1307;DHT22;646;48.696;9.114;2022-08-21T05:30:17;13.40;99.90
1307;DHT22;646;48.696;9.114;2022-08-21T05:32:42;13.40;99.90
1307;DHT22;646;48.696;9.114;2022-08-21T05:35:08;13.70;99.90
1307;DHT22;646;48.696;9.114;2022-08-21T05:37:34;13.80;99.90
1307;DHT22;646;48.696;9.114;2022-08-21T05:40:02;13.80;99.90
1307;DHT22;646;48.696;9.114;2022-08-21T05:42:29;14.50;99.90
1307;DHT22;646;48.696;9.114;2022-08-21T05:44:54;14.70;99.90
1307;DHT22;646;48.696;9.114;2022-08-21T05:47:20;15.10;99.90
1307;DHT22;646;48.696;9.114;2022-08-21T05:49:45;15.60;99.90
1307;DHT22;646;48.696;9.114;2022-08-21T05:52:12;15.70;99.90
1307;DHT22;646;48.696;9.114;2022-08-21T05:54:37;16.10;99.90
1307;DHT22;646;48.696;9.114;2022-08-21T05:57:03;16.30;99.90
1307;DHT22;646;48.696;9.114;2022-08-21T05:59:28;16.90;99.90
1307;DHT22;646;48.696;9.114;2022-08-21T06:01:54;16.90;99.90
1307;DHT22;646;48.696;9.114;2022-08-21T06:04:19;17.50;99.90
1307;DHT22;646;48.696;9.114;2022-08-21T06:06:45;17.80;99.90
1307;DHT22;646;48.696;9.114;2022-08-21T06:09:12;18.30;99.90
1307;DHT22;646;48.696;9.114;2022-08-21T06:11:38;18.30;99.90
1307;DHT22;646;48.696;9.114;2022-08-21T06:14:03;19.20;98.90
1307;DHT22;646;48.696;9.114;2022-08-21T06:16:31;19.30;97.00
1307;DHT22;646;48.696;9.114;2022-08-21T06:18:57;19.30;96.20
1307;DHT22;646;48.696;9.114;2022-08-21T06:21:25;19.00;95.90
1307;DHT22;646;48.696;9.114;2022-08-21T06:23:50;19.50;96.10
1307;DHT22;646;48.696;9.114;2022-08-21T06:26:16;19.40;95.20
1307;DHT22;646;48.696;9.114;2022-08-21T06:28:42;19.40;94.70
1307;DHT22;646;48.696;9.114;2022-08-21T06:31:19;19.20;94.20
1307;DHT22;646;48.696;9.114;2022-08-21T06:33:45;19.20;94.60
1307;DHT22;646;48.696;9.114;2022-08-21T06:36:10;19.00;95.00
1307;DHT22;646;48.696;9.114;2022-08-21T06:38:36;19.10;95.70
1307;DHT22;646;48.696;9.114;2022-08-21T06:41:02;19.00;95.70
1307;DHT22;646;48.696;9.114;2022-08-21T06:43:28;18.70;95.80
1307;DHT22;646;48.696;9.114;2022-08-21T06:45:54;18.70;96.40
1307;DHT22;646;48.696;9.114;2022-08-21T06:48:20;18.50;96.50
1307;DHT22;646;48.696;9.114;2022-08-21T06:50:46;18.50;96.50
1307;DHT22;646;48.696;9.114;2022-08-21T06:53:13;18.20;96.30
1307;DHT22;646;48.696;9.114;2022-08-21T06:55:40;18.50;96.60
1307;DHT22;646;48.696;9.114;2022-08-21T06:58:07;18.60;96.80
1307;DHT22;646;48.696;9.114;2022-08-21T07:00:33;18.40;96.70
1307;DHT22;646;48.696;9.114;2022-08-21T07:02:59;18.20;96.70
1307;DHT22;646;48.696;9.114;2022-08-21T07:05:26;18.30;96.50
1307;DHT22;646;48.696;9.114;2022-08-21T07:07:52;18.70;96.10
1307;DHT22;646;48.696;9.114;2022-08-21T07:10:18;18.50;96.00
1307;DHT22;646;48.696;9.114;2022-08-21T07:12:44;18.90;96.90
1307;DHT22;646;48.696;9.114;2022-08-21T07:15:10;18.50;97.00
1307;DHT22;646;48.696;9.114;2022-08-21T07:17:35;18.90;96.60
1307;DHT22;646;48.696;9.114;2022-08-21T07:20:02;19.00;96.20
1307;DHT22;646;48.696;9.114;2022-08-21T07:22:28;19.00;95.80
1307;DHT22;646;48.696;9.114;2022-08-21T07:24:54;19.20;95.60
1307;DHT22;646;48.696;9.114;2022-08-21T07:27:20;19.10;95.10
1307;DHT22;646;48.696;9.114;2022-08-21T07:29:45;19.20;94.80
1307;DHT22;646;48.696;9.114;2022-08-21T07:32:11;19.50;93.80
1307;DHT22;646;48.696;9.114;2022-08-21T07:34:36;19.50;93.20
1307;DHT22;646;48.696;9.114;2022-08-21T07:37:02;19.60;93.60
1307;DHT22;646;48.696;9.114;2022-08-21T07:39:28;19.70;93.60
1307;DHT22;646;48.696;9.114;2022-08-21T07:41:53;19.90;93.10
1307;DHT22;646;48.696;9.114;2022-08-21T07:44:18;19.90;92.70
1307;DHT22;646;48.696;9.114;2022-08-21T07:46:44;20.00;92.40
1307;DHT22;646;48.696;9.114;2022-08-21T07:49:09;20.20;91.80
1307;DHT22;646;48.696;9.114;2022-08-21T07:51:35;20.30;91.20
1307;DHT22;646;48.696;9.114;2022-08-21T07:54:01;20.20;90.70
1307;DHT22;646;48.696;9.114;2022-08-21T07:56:29;20.40;90.60
1307;DHT22;646;48.696;9.114;2022-08-21T07:58:55;20.60;90.00
1307;DHT22;646;48.696;9.114;2022-08-21T08:01:22;20.60;88.20
1307;DHT22;646;48.696;9.114;2022-08-21T08:03:48;20.70;87.70
1307;DHT22;646;48.696;9.114;2022-08-21T08:06:14;20.70;80.20
1307;DHT22;646;48.696;9.114;2022-08-21T08:08:41;21.10;81.60
1307;DHT22;646;48.696;9.114;2022-08-21T08:11:07;21.10;75.00
1307;DHT22;646;48.696;9.114;2022-08-21T08:13:42;21.50;70.30
1307;DHT22;646;48.696;9.114;2022-08-21T08:16:08;21.50;73.40
1307;DHT22;646;48.696;9.114;2022-08-21T08:18:34;21.90;73.80
1307;DHT22;646;48.696;9.114;2022-08-21T08:20:59;21.70;73.40
1307;DHT22;646;48.696;9.114;2022-08-21T08:23:25;21.80;71.90
1307;DHT22;646;48.696;9.114;2022-08-21T08:25:51;22.00;70.90
1307;DHT22;646;48.696;9.114;2022-08-21T08:28:17;22.00;67.30
1307;DHT22;646;48.696;9.114;2022-08-21T08:30:42;22.20;67.70
1307;DHT22;646;48.696;9.114;2022-08-21T08:33:08;22.40;60.40
1307;DHT22;646;48.696;9.114;2022-08-21T08:35:34;22.60;61.00
1307;DHT22;646;48.696;9.114;2022-08-21T08:37:59;22.70;62.40
1307;DHT22;646;48.696;9.114;2022-08-21T08:42:54;22.50;60.90
1307;DHT22;646;48.696;9.114;2022-08-21T08:45:21;22.70;60.60
1307;DHT22;646;48.696;9.114;2022-08-21T08:47:55;23.00;57.60
1307;DHT22;646;48.696;9.114;2022-08-21T08:53:23;23.40;58.60
1307;DHT22;646;48.696;9.114;2022-08-21T08:55:51;24.30;57.70
1307;DHT22;646;48.696;9.114;2022-08-21T08:58:23;25.70;55.30
1307;DHT22;646;48.696;9.114;2022-08-21T09:00:52;27.40;51.60
1307;DHT22;646;48.696;9.114;2022-08-21T09:03:18;29.20;47.60
1307;DHT22;646;48.696;9.114;2022-08-21T09:05:48;30.80;42.80
1307;DHT22;646;48.696;9.114;2022-08-21T09:08:46;32.20;40.00
1307;DHT22;646;48.696;9.114;2022-08-21T09:11:44;34.10;37.50
1307;DHT22;646;48.696;9.114;2022-08-21T09:17:35;37.30;27.40
1307;DHT22;646;48.696;9.114;2022-08-21T09:25:45;39.50;25.00
1307;DHT22;646;48.696;9.114;2022-08-21T09:28:15;40.10;24.20
1307;DHT22;646;48.696;9.114;2022-08-21T09:30:40;40.50;24.20
1307;DHT22;646;48.696;9.114;2022-08-21T09:33:06;41.10;22.90
1307;DHT22;646;48.696;9.114;2022-08-21T09:35:32;41.40;22.50
1307;DHT22;646;48.696;9.114;2022-08-21T09:38:05;42.10;21.60
1307;DHT22;646;48.696;9.114;2022-08-21T09:40:37;42.80;21.90
1307;DHT22;646;48.696;9.114;2022-08-21T09:45:34;43.50;20.10
1307;DHT22;646;48.696;9.114;2022-08-21T09:48:11;42.20;20.50
1307;DHT22;646;48.696;9.114;2022-08-21T09:50:37;40.80;21.90
1307;DHT22;646;48.696;9.114;2022-08-21T09:53:04;40.70;23.20
1307;DHT22;646;48.696;9.114;2022-08-21T09:55:52;41.40;22.40
1307;DHT22;646;48.696;9.114;2022-08-21T09:58:37;42.10;22.00
1307;DHT22;646;48.696;9.114;2022-08-21T10:01:05;42.80;21.00
1307;DHT22;646;48.696;9.114;2022-08-21T10:03:31;43.40;20.40
1307;DHT22;646;48.696;9.114;2022-08-21T10:06:03;43.90;20.60
1307;DHT22;646;48.696;9.114;2022-08-21T10:08:35;44.20;19.70
1307;DHT22;646;48.696;9.114;2022-08-21T10:11:10;44.10;19.40
1307;DHT22;646;48.696;9.114;2022-08-21T10:19:12;39.70;21.50
1307;DHT22;646;48.696;9.114;2022-08-21T10:22:00;38.00;22.90
1307;DHT22;646;48.696;9.114;2022-08-21T10:30:52;38.70;24.80
1307;DHT22;646;48.696;9.114;2022-08-21T10:33:32;39.90;24.70
1307;DHT22;646;48.696;9.114;2022-08-21T10:46:41;45.20;19.20
1307;DHT22;646;48.696;9.114;2022-08-21T10:49:25;46.20;18.70
1307;DHT22;646;48.696;9.114;2022-08-21T10:52:31;46.60;17.70
1307;DHT22;646;48.696;9.114;2022-08-21T10:55:15;46.90;17.10
1307;DHT22;646;48.696;9.114;2022-08-21T10:57:58;47.00;16.90
1307;DHT22;646;48.696;9.114;2022-08-21T11:00:43;46.00;17.70
1307;DHT22;646;48.696;9.114;2022-08-21T11:03:35;46.20;18.00
1307;DHT22;646;48.696;9.114;2022-08-21T11:06:13;46.70;17.10
1307;DHT22;646;48.696;9.114;2022-08-21T11:08:46;47.30;16.30
1307;DHT22;646;48.696;9.114;2022-08-21T11:13:53;46.90;16.70
1307;DHT22;646;48.696;9.114;2022-08-21T11:21:50;47.00;17.20
1307;DHT22;646;48.696;9.114;2022-08-21T11:27:54;47.20;16.40
1307;DHT22;646;48.696;9.114;2022-08-21T11:30:21;47.10;16.50
1307;DHT22;646;48.696;9.114;2022-08-21T11:35:30;47.90;16.60
1307;DHT22;646;48.696;9.114;2022-08-21T11:40:51;48.40;16.70
1307;DHT22;646;48.696;9.114;2022-08-21T11:43:41;48.80;16.00
1307;DHT22;646;48.696;9.114;2022-08-21T11:54:26;46.60;15.60
1307;DHT22;646;48.696;9.114;2022-08-21T11:57:02;45.20;17.50
1307;DHT22;646;48.696;9.114;2022-08-21T11:59:49;43.90;17.70
1307;DHT22;646;48.696;9.114;2022-08-21T12:02:23;42.00;19.00
1307;DHT22;646;48.696;9.114;2022-08-21T12:04:53;39.70;20.90
1307;DHT22;646;48.696;9.114;2022-08-21T12:09:58;36.30;24.40
1307;DHT22;646;48.696;9.114;2022-08-21T12:12:30;35.00;25.30
1307;DHT22;646;48.696;9.114;2022-08-21T12:18:02;32.80;28.30
1307;DHT22;646;48.696;9.114;2022-08-21T12:20:41;31.80;29.80
1307;DHT22;646;48.696;9.114;2022-08-21T12:25:41;30.30;33.30
1307;DHT22;646;48.696;9.114;2022-08-21T12:28:10;30.00;33.50
1307;DHT22;646;48.696;9.114;2022-08-21T12:30:40;29.80;34.80
1307;DHT22;646;48.696;9.114;2022-08-21T12:33:32;29.60;35.70
1307;DHT22;646;48.696;9.114;2022-08-21T12:36:10;30.40;37.00
1307;DHT22;646;48.696;9.114;2022-08-21T12:39:01;32.30;34.20
1307;DHT22;646;48.696;9.114;2022-08-21T12:41:32;34.90;29.70
1307;DHT22;646;48.696;9.114;2022-08-21T12:44:07;37.20;27.60
1307;DHT22;646;48.696;9.114;2022-08-21T12:46:43;39.40;26.30
1307;DHT22;646;48.696;9.114;2022-08-21T12:49:19;41.10;23.20
1307;DHT22;646;48.696;9.114;2022-08-21T12:51:55;42.00;22.40
1307;DHT22;646;48.696;9.114;2022-08-21T12:54:36;42.80;21.00
1307;DHT22;646;48.696;9.114;2022-08-21T12:57:04;43.90;20.60
1307;DHT22;646;48.696;9.114;2022-08-21T12:59:31;44.90;19.50
1307;DHT22;646;48.696;9.114;2022-08-21T13:01:59;46.10;18.90
1307;DHT22;646;48.696;9.114;2022-08-21T13:04:35;45.90;17.70
1307;DHT22;646;48.696;9.114;2022-08-21T13:07:16;44.40;17.70
1307;DHT22;646;48.696;9.114;2022-08-21T13:10:00;42.60;18.60
1307;DHT22;646;48.696;9.114;2022-08-21T13:12:28;40.50;20.00
1307;DHT22;646;48.696;9.114;2022-08-21T13:14:58;38.80;21.90
1307;DHT22;646;48.696;9.114;2022-08-21T13:17:26;37.40;23.30
1307;DHT22;646;48.696;9.114;2022-08-21T13:20:02;36.60;24.30
1307;DHT22;646;48.696;9.114;2022-08-21T13:22:28;35.80;24.90
1307;DHT22;646;48.696;9.114;2022-08-21T13:24:54;34.80;26.80
1307;DHT22;646;48.696;9.114;2022-08-21T13:27:29;34.00;27.80
1307;DHT22;646;48.696;9.114;2022-08-21T13:30:22;33.30;28.80
1307;DHT22;646;48.696;9.114;2022-08-21T13:32:50;32.50;29.60
1307;DHT22;646;48.696;9.114;2022-08-21T13:36:10;31.90;29.90
1307;DHT22;646;48.696;9.114;2022-08-21T13:38:09;31.40;30.80
1307;DHT22;646;48.696;9.114;2022-08-21T13:40:46;30.90;31.00
1307;DHT22;646;48.696;9.114;2022-08-21T13:43:15;30.50;32.00
1307;DHT22;646;48.696;9.114;2022-08-21T13:45:46;30.10;32.70
1307;DHT22;646;48.696;9.114;2022-08-21T13:48:12;29.90;32.90
1307;DHT22;646;48.696;9.114;2022-08-21T13:50:39;29.70;33.90
1307;DHT22;646;48.696;9.114;2022-08-21T13:53:07;29.70;34.30
1307;DHT22;646;48.696;9.114;2022-08-21T13:55:43;29.70;34.10
1307;DHT22;646;48.696;9.114;2022-08-21T13:58:10;30.50;36.40
1307;DHT22;646;48.696;9.114;2022-08-21T14:00:48;32.60;34.50
1307;DHT22;646;48.696;9.114;2022-08-21T14:03:47;35.00;29.70
1307;DHT22;646;48.696;9.114;2022-08-21T14:06:22;37.20;27.30
1307;DHT22;646;48.696;9.114;2022-08-21T14:08:56;38.80;23.50
1307;DHT22;646;48.696;9.114;2022-08-21T14:11:23;39.80;23.10
1307;DHT22;646;48.696;9.114;2022-08-21T14:16:24;41.20;21.80
1307;DHT22;646;48.696;9.114;2022-08-21T14:21:32;41.90;20.40
1307;DHT22;646;48.696;9.114;2022-08-21T14:26:56;41.80;20.10
1307;DHT22;646;48.696;9.114;2022-08-21T14:29:26;41.50;19.90
1307;DHT22;646;48.696;9.114;2022-08-21T14:31:55;41.20;19.80
1307;DHT22;646;48.696;9.114;2022-08-21T14:34:27;40.80;20.70
1307;DHT22;646;48.696;9.114;2022-08-21T14:36:54;40.40;21.40
1307;DHT22;646;48.696;9.114;2022-08-21T14:39:20;40.10;21.10
1307;DHT22;646;48.696;9.114;2022-08-21T14:41:46;39.90;21.90
1307;DHT22;646;48.696;9.114;2022-08-21T14:44:14;39.40;21.40
1307;DHT22;646;48.696;9.114;2022-08-21T14:46:40;38.60;22.60
1307;DHT22;646;48.696;9.114;2022-08-21T14:49:05;38.10;23.30
1307;DHT22;646;48.696;9.114;2022-08-21T14:51:31;37.90;24.10
1307;DHT22;646;48.696;9.114;2022-08-21T14:53:57;38.30;24.70
1307;DHT22;646;48.696;9.114;2022-08-21T14:56:22;38.70;23.70
1307;DHT22;646;48.696;9.114;2022-08-21T14:58:49;38.80;22.10
1307;DHT22;646;48.696;9.114;2022-08-21T15:01:18;37.90;22.90
1307;DHT22;646;48.696;9.114;2022-08-21T15:03:45;37.00;23.40
1307;DHT22;646;48.696;9.114;2022-08-21T15:06:11;37.00;24.40
1307;DHT22;646;48.696;9.114;2022-08-21T15:08:37;37.20;23.60
1307;DHT22;646;48.696;9.114;2022-08-21T15:11:03;37.60;23.40
1307;DHT22;646;48.696;9.114;2022-08-21T15:13:30;37.90;23.60
1307;DHT22;646;48.696;9.114;2022-08-21T15:15:56;38.10;23.20
1307;DHT22;646;48.696;9.114;2022-08-21T15:18:24;38.40;22.70
1307;DHT22;646;48.696;9.114;2022-08-21T15:20:50;38.70;23.40
1307;DHT22;646;48.696;9.114;2022-08-21T15:23:16;38.90;22.00
1307;DHT22;646;48.696;9.114;2022-08-21T15:25:43;38.90;21.40
1307;DHT22;646;48.696;9.114;2022-08-21T15:28:09;38.80;21.80
1307;DHT22;646;48.696;9.114;2022-08-21T15:30:35;38.80;22.40
1307;DHT22;646;48.696;9.114;2022-08-21T15:33:01;38.80;22.40
1307;DHT22;646;48.696;9.114;2022-08-21T15:35:27;38.70;21.90
1307;DHT22;646;48.696;9.114;2022-08-21T15:37:52;38.60;22.10
1307;DHT22;646;48.696;9.114;2022-08-21T15:40:18;38.40;22.20
1307;DHT22;646;48.696;9.114;2022-08-21T15:42:44;38.30;22.20
1307;DHT22;646;48.696;9.114;2022-08-21T15:45:11;38.00;23.10
1307;DHT22;646;48.696;9.114;2022-08-21T15:47:39;37.90;22.50
1307;DHT22;646;48.696;9.114;2022-08-21T15:50:09;37.50;22.40
1307;DHT22;646;48.696;9.114;2022-08-21T15:52:35;37.10;23.10
1307;DHT22;646;48.696;9.114;2022-08-21T15:55:00;36.50;23.40
1307;DHT22;646;48.696;9.114;2022-08-21T15:57:26;35.80;23.60
1307;DHT22;646;48.696;9.114;2022-08-21T16:00:01;35.00;24.70
1307;DHT22;646;48.696;9.114;2022-08-21T16:02:37;34.10;25.40
1307;DHT22;646;48.696;9.114;2022-08-21T16:05:03;33.30;26.40
1307;DHT22;646;48.696;9.114;2022-08-21T16:07:28;32.60;27.30
1307;DHT22;646;48.696;9.114;2022-08-21T16:09:54;31.90;27.90
1307;DHT22;646;48.696;9.114;2022-08-21T16:12:28;31.30;28.80
1307;DHT22;646;48.696;9.114;2022-08-21T16:14:58;30.70;28.90
1307;DHT22;646;48.696;9.114;2022-08-21T16:17:30;30.10;29.60
1307;DHT22;646;48.696;9.114;2022-08-21T16:19:57;29.70;30.20
1307;DHT22;646;48.696;9.114;2022-08-21T16:22:24;29.20;30.70
1307;DHT22;646;48.696;9.114;2022-08-21T16:24:50;28.90;31.30
1307;DHT22;646;48.696;9.114;2022-08-21T16:27:15;28.60;32.10
1307;DHT22;646;48.696;9.114;2022-08-21T16:29:43;28.30;32.80
1307;DHT22;646;48.696;9.114;2022-08-21T16:32:09;28.10;33.40
1307;DHT22;646;48.696;9.114;2022-08-21T16:34:35;27.80;34.20
1307;DHT22;646;48.696;9.114;2022-08-21T16:37:02;27.70;34.50
1307;DHT22;646;48.696;9.114;2022-08-21T16:39:28;27.60;34.40
1307;DHT22;646;48.696;9.114;2022-08-21T16:41:54;27.40;34.60
1307;DHT22;646;48.696;9.114;2022-08-21T16:44:21;27.30;35.00
1307;DHT22;646;48.696;9.114;2022-08-21T16:46:47;27.20;34.80
1307;DHT22;646;48.696;9.114;2022-08-21T16:49:12;27.10;35.50
1307;DHT22;646;48.696;9.114;2022-08-21T16:51:38;27.00;35.50
1307;DHT22;646;48.696;9.114;2022-08-21T16:54:04;26.90;36.00
1307;DHT22;646;48.696;9.114;2022-08-21T16:56:30;26.80;35.30
1307;DHT22;646;48.696;9.114;2022-08-21T16:58:56;26.70;35.50
1307;DHT22;646;48.696;9.114;2022-08-21T17:01:25;26.60;35.60
1307;DHT22;646;48.696;9.114;2022-08-21T17:03:51;26.50;35.70
1307;DHT22;646;48.696;9.114;2022-08-21T17:06:17;26.50;36.00
1307;DHT22;646;48.696;9.114;2022-08-21T17:08:43;26.10;36.00
1307;DHT22;646;48.696;9.114;2022-08-21T17:11:28;26.10;36.00
1307;DHT22;646;48.696;9.114;2022-08-21T17:13:56;26.10;36.30
1307;DHT22;646;48.696;9.114;2022-08-21T17:16:23;26.00;36.80
1307;DHT22;646;48.696;9.114;2022-08-21T17:18:49;25.60;36.90
1307;DHT22;646;48.696;9.114;2022-08-21T17:21:15;25.50;37.60
1307;DHT22;646;48.696;9.114;2022-08-21T17:23:41;25.50;38.10
1307;DHT22;646;48.696;9.114;2022-08-21T17:26:07;25.20;38.00
1307;DHT22;646;48.696;9.114;2022-08-21T17:28:34;25.60;38.80
1307;DHT22;646;48.696;9.114;2022-08-21T17:31:02;25.10;38.70
1307;DHT22;646;48.696;9.114;2022-08-21T17:33:31;24.80;40.00
1307;DHT22;646;48.696;9.114;2022-08-21T17:35:59;25.10;40.80
1307;DHT22;646;48.696;9.114;2022-08-21T17:38:24;24.70;41.40
1307;DHT22;646;48.696;9.114;2022-08-21T17:40:50;24.40;41.90
1307;DHT22;646;48.696;9.114;2022-08-21T17:43:16;24.60;42.90
1307;DHT22;646;48.696;9.114;2022-08-21T17:45:43;23.90;43.10
1307;DHT22;646;48.696;9.114;2022-08-21T17:48:09;23.90;44.50
1307;DHT22;646;48.696;9.114;2022-08-21T17:50:35;23.90;45.30